createdAt,value
2023-02-22T00:01:35.911Z,13.50
2023-02-22T00:04:06.211Z,13.50
2023-02-22T00:06:33.940Z,13.50
2023-02-22T00:09:02.420Z,13.50
2023-02-22T00:11:29.663Z,13.50
2023-02-22T00:13:59.202Z,13.40
2023-02-22T00:16:27.096Z,13.40
2023-02-22T00:18:54.935Z,13.50
2023-02-22T00:21:22.416Z,13.50
2023-02-22T00:23:49.736Z,13.50
2023-02-22T00:26:21.982Z,13.50
2023-02-22T00:28:53.624Z,13.50
2023-02-22T00:31:21.590Z,13.50
2023-02-22T00:33:48.738Z,13.50
2023-02-22T00:36:15.959Z,13.50
2023-02-22T00:38:42.884Z,13.50
2023-02-22T00:41:12.311Z,13.50
2023-02-22T00:43:39.190Z,13.50
2023-02-22T00:46:06.229Z,13.50
2023-02-22T00:48:33.175Z,13.50
2023-02-22T00:51:00.030Z,13.50
2023-02-22T00:53:27.003Z,13.50
2023-02-22T00:55:54.307Z,13.50
2023-02-22T00:58:22.204Z,13.50
2023-02-22T01:00:49.254Z,13.40
2023-02-22T01:03:20.027Z,13.40
2023-02-22T01:05:47.894Z,13.40
2023-02-22T01:08:16.700Z,13.40
2023-02-22T01:10:44.035Z,13.40
2023-02-22T01:13:12.626Z,13.40
2023-02-22T01:15:42.283Z,13.30
2023-02-22T01:18:10.257Z,13.30
2023-02-22T01:20:37.287Z,13.30
2023-02-22T01:23:07.804Z,13.30
2023-02-22T01:25:35.671Z,13.30
2023-02-22T01:28:04.542Z,13.30
2023-02-22T01:30:34.271Z,13.30
2023-02-22T01:33:07.410Z,13.30
2023-02-22T01:35:37.483Z,13.30
2023-02-22T01:38:04.497Z,13.30
2023-02-22T01:40:35.489Z,13.30
2023-02-22T01:43:14.498Z,13.30
2023-02-22T01:46:03.014Z,13.30
2023-02-22T01:48:35.995Z,13.30
2023-02-22T01:51:16.913Z,13.20
2023-02-22T01:53:53.040Z,13.20
2023-02-22T01:56:21.884Z,13.20
2023-02-22T01:58:57.194Z,13.20
2023-02-22T02:01:25.931Z,13.20
2023-02-22T02:03:58.287Z,13.10
2023-02-22T02:06:27.048Z,13.10
2023-02-22T02:09:32.810Z,13.00
2023-02-22T02:12:01.197Z,13.00
2023-02-22T02:14:28.753Z,12.90
2023-02-22T02:16:56.644Z,12.90
2023-02-22T02:20:11.111Z,12.80
2023-02-22T02:22:48.898Z,12.80
2023-02-22T02:25:51.891Z,12.80
2023-02-22T02:28:40.313Z,12.80
2023-02-22T02:31:41.111Z,12.70
2023-02-22T02:34:37.836Z,12.80
2023-02-22T02:37:39.167Z,12.70
2023-02-22T02:40:20.197Z,12.70
2023-02-22T02:43:09.836Z,12.70
2023-02-22T02:45:49.616Z,12.70
2023-02-22T02:48:21.002Z,12.70
2023-02-22T02:50:49.917Z,12.70
2023-02-22T02:53:22.059Z,12.70
2023-02-22T02:55:49.027Z,12.70
2023-02-22T02:58:22.216Z,12.60
2023-02-22T03:00:53.193Z,12.70
2023-02-22T03:03:30.034Z,12.70
2023-02-22T03:06:34.594Z,12.70
2023-02-22T03:09:37.114Z,12.60
2023-02-22T03:12:12.823Z,12.60
2023-02-22T03:14:56.023Z,12.60
2023-02-22T03:17:31.947Z,12.60
2023-02-22T03:20:10.882Z,12.60
2023-02-22T03:22:57.508Z,12.50
2023-02-22T03:25:34.188Z,12.50
2023-02-22T03:28:05.814Z,12.50
2023-02-22T03:30:37.141Z,12.40
2023-02-22T03:33:09.120Z,12.40
2023-02-22T03:35:42.108Z,12.40
2023-02-22T03:38:12.013Z,12.40
2023-02-22T03:40:44.282Z,12.40
2023-02-22T03:43:15.802Z,12.40
2023-02-22T03:45:45.315Z,12.40
2023-02-22T03:48:36.824Z,12.40
2023-02-22T03:51:05.562Z,12.30
2023-02-22T03:53:34.659Z,12.30
2023-02-22T03:56:05.576Z,12.30
2023-02-22T03:58:35.617Z,12.20
2023-02-22T04:01:03.612Z,12.30
2023-02-22T04:03:30.491Z,12.30
2023-02-22T04:05:57.533Z,12.20
2023-02-22T04:08:24.415Z,12.30
2023-02-22T04:10:51.288Z,12.20
2023-02-22T04:13:18.181Z,12.20
2023-02-22T04:15:45.022Z,12.20
2023-02-22T04:18:11.922Z,12.20
2023-02-22T04:20:38.936Z,12.20
2023-02-22T04:23:06.172Z,12.20
2023-02-22T04:25:33.083Z,12.20
2023-02-22T04:27:59.943Z,12.20
2023-02-22T04:30:28.394Z,12.20
2023-02-22T04:32:55.524Z,12.20
2023-02-22T04:35:22.932Z,12.10
2023-02-22T04:37:49.816Z,12.10
2023-02-22T04:40:17.796Z,12.10
2023-02-22T04:42:44.842Z,12.10
2023-02-22T04:45:12.159Z,12.00
2023-02-22T04:47:39.651Z,12.10
2023-02-22T04:50:08.725Z,12.00
2023-02-22T04:52:35.659Z,12.00
2023-02-22T04:55:02.670Z,12.00
2023-02-22T04:57:29.606Z,12.00
2023-02-22T04:59:56.822Z,12.00
2023-02-22T05:02:23.909Z,12.00
2023-02-22T05:04:50.982Z,12.00
2023-02-22T05:07:18.105Z,12.00
2023-02-22T05:09:44.994Z,12.00
2023-02-22T05:12:11.900Z,12.00
2023-02-22T05:14:38.984Z,12.00
2023-02-22T05:17:06.108Z,12.00
2023-02-22T05:19:33.198Z,12.00
2023-02-22T05:22:00.293Z,12.00
2023-02-22T05:24:27.200Z,12.00
2023-02-22T05:26:54.103Z,12.00
2023-02-22T05:29:21.344Z,12.00
2023-02-22T05:31:48.304Z,12.00
2023-02-22T05:34:15.961Z,12.10
2023-02-22T05:36:42.979Z,12.10
2023-02-22T05:39:10.077Z,12.00
2023-02-22T05:41:37.017Z,12.00
2023-02-22T05:44:04.230Z,12.00
2023-02-22T05:46:31.354Z,12.00
2023-02-22T05:48:58.591Z,12.00
2023-02-22T05:51:25.516Z,12.00
2023-02-22T05:53:52.604Z,12.00
2023-02-22T05:56:27.935Z,12.00
2023-02-22T05:58:55.056Z,12.00
2023-02-22T06:01:22.907Z,11.90
2023-02-22T06:03:51.537Z,11.90
2023-02-22T06:06:22.693Z,11.90
2023-02-22T06:08:49.973Z,11.90
2023-02-22T06:11:17.337Z,11.90
2023-02-22T06:13:53.319Z,11.90
2023-02-22T06:16:21.791Z,11.90
2023-02-22T06:18:49.608Z,11.90
2023-02-22T06:21:17.842Z,11.90
2023-02-22T06:23:45.171Z,11.90
2023-02-22T06:26:12.143Z,11.90
2023-02-22T06:28:39.172Z,11.80
2023-02-22T06:31:06.158Z,11.80
2023-02-22T06:33:33.093Z,11.80
2023-02-22T06:36:00.096Z,11.80
2023-02-22T06:38:27.869Z,11.80
2023-02-22T06:40:57.881Z,11.80
2023-02-22T06:43:25.949Z,11.80
2023-02-22T06:45:53.075Z,11.80
2023-02-22T06:48:20.262Z,11.80
2023-02-22T06:50:47.148Z,11.80
2023-02-22T06:53:14.228Z,11.80
2023-02-22T06:55:41.172Z,11.80
2023-02-22T06:58:08.006Z,11.70
2023-02-22T07:00:35.122Z,11.80
2023-02-22T07:03:04.009Z,11.70
2023-02-22T07:05:31.050Z,11.70
2023-02-22T07:08:06.553Z,11.80
2023-02-22T07:10:35.652Z,11.80
2023-02-22T07:13:03.931Z,11.80
2023-02-22T07:15:32.823Z,11.80
2023-02-22T07:18:00.882Z,11.80
2023-02-22T07:20:31.611Z,11.80
2023-02-22T07:22:58.640Z,11.80
2023-02-22T07:25:26.095Z,11.80
2023-02-22T07:27:53.225Z,11.80
2023-02-22T07:30:34.032Z,11.90
2023-02-22T07:33:04.290Z,11.90
2023-02-22T07:35:39.429Z,11.90
2023-02-22T07:38:10.551Z,11.90
2023-02-22T07:40:38.322Z,11.90
2023-02-22T07:43:07.364Z,11.90
2023-02-22T07:45:36.105Z,11.90
2023-02-22T07:48:05.388Z,12.00
2023-02-22T07:50:33.872Z,12.10
2023-02-22T07:53:12.782Z,12.10
2023-02-22T07:55:39.726Z,12.10
2023-02-22T07:58:08.706Z,12.10
2023-02-22T08:00:40.744Z,12.20
2023-02-22T08:03:13.294Z,12.20
2023-02-22T08:05:43.295Z,12.30
2023-02-22T08:08:10.342Z,12.30
2023-02-22T08:10:37.584Z,12.40
2023-02-22T08:13:05.794Z,12.50
2023-02-22T08:15:41.182Z,12.50
2023-02-22T08:18:11.167Z,12.60
2023-02-22T08:20:39.268Z,12.60
2023-02-22T08:23:07.725Z,12.70
2023-02-22T08:25:34.768Z,12.70
2023-02-22T08:28:04.932Z,12.80
2023-02-22T08:30:34.923Z,12.80
2023-02-22T08:33:05.312Z,12.80
2023-02-22T08:35:33.300Z,12.90
2023-02-22T08:38:02.909Z,12.90
2023-02-22T08:40:32.718Z,13.00
2023-02-22T08:43:00.104Z,13.00
2023-02-22T08:45:27.301Z,13.00
2023-02-22T08:47:54.299Z,13.10
2023-02-22T08:50:24.861Z,13.10
2023-02-22T08:52:54.151Z,13.20
2023-02-22T08:55:23.440Z,13.20
2023-02-22T08:57:50.742Z,13.30
2023-02-22T09:00:24.779Z,13.40
2023-02-22T09:02:52.520Z,13.50
2023-02-22T09:05:19.705Z,13.60
2023-02-22T09:07:46.959Z,13.70
2023-02-22T09:10:33.788Z,13.80
2023-02-22T09:13:01.675Z,13.90
2023-02-22T09:15:29.560Z,13.90
2023-02-22T09:17:56.917Z,13.90
2023-02-22T09:20:24.998Z,14.00
2023-02-22T09:22:52.531Z,14.00
2023-02-22T09:25:22.961Z,14.10
2023-02-22T09:27:54.036Z,14.10
2023-02-22T09:30:26.331Z,14.20
2023-02-22T09:32:55.955Z,14.20
2023-02-22T09:35:30.031Z,14.20
2023-02-22T09:37:59.161Z,14.20
2023-02-22T09:40:44.927Z,14.30
2023-02-22T09:43:14.764Z,14.40
2023-02-22T09:46:20.457Z,14.30
2023-02-22T09:49:06.145Z,14.30
2023-02-22T09:51:49.408Z,14.40
2023-02-22T09:54:34.373Z,14.40
2023-02-22T09:57:05.985Z,14.50
2023-02-22T09:59:41.553Z,14.50
2023-02-22T10:02:27.039Z,14.50
2023-02-22T10:05:08.424Z,14.50
2023-02-22T10:07:53.524Z,14.50
2023-02-22T10:10:23.531Z,14.60
2023-02-22T10:13:15.086Z,14.60
2023-02-22T10:16:02.722Z,14.60
2023-02-22T10:19:00.214Z,14.60
2023-02-22T10:22:00.210Z,14.70
2023-02-22T10:24:51.794Z,14.70
2023-02-22T10:27:34.182Z,14.70
2023-02-22T10:30:22.344Z,14.80
2023-02-22T10:33:06.443Z,14.80
2023-02-22T10:35:37.144Z,14.90
2023-02-22T10:38:16.788Z,14.90
2023-02-22T10:40:57.233Z,15.00
2023-02-22T10:43:25.813Z,15.00
2023-02-22T10:46:01.358Z,15.10
2023-02-22T10:48:32.078Z,15.10
2023-02-22T10:51:02.097Z,15.20
2023-02-22T10:53:30.647Z,15.20
2023-02-22T10:56:16.932Z,15.30
2023-02-22T10:58:51.864Z,15.40
2023-02-22T11:01:30.885Z,15.40
2023-02-22T11:04:16.803Z,15.50
2023-02-22T11:07:17.380Z,15.50
2023-02-22T11:09:55.836Z,15.60
2023-02-22T11:12:47.842Z,15.70
2023-02-22T11:15:18.859Z,15.70
2023-02-22T11:17:50.111Z,15.70
2023-02-22T11:20:25.806Z,15.80
2023-02-22T11:23:01.030Z,15.80
2023-02-22T11:25:34.541Z,15.90
2023-02-22T11:28:30.988Z,15.90
2023-02-22T11:31:09.397Z,16.00
2023-02-22T11:33:37.979Z,16.00
2023-02-22T11:36:08.871Z,16.10
2023-02-22T11:38:53.120Z,16.10
2023-02-22T11:41:31.008Z,16.10
2023-02-22T11:44:21.929Z,16.10
2023-02-22T11:46:50.315Z,16.10
2023-02-22T11:49:18.429Z,16.10
2023-02-22T11:51:54.159Z,16.10
2023-02-22T11:54:58.722Z,16.20
2023-02-22T11:57:46.711Z,16.20
2023-02-22T12:00:33.478Z,16.00
2023-02-22T12:03:18.379Z,16.00
2023-02-22T12:06:08.268Z,16.10
2023-02-22T12:08:55.641Z,16.20
2023-02-22T12:11:22.784Z,16.30
2023-02-22T12:14:24.104Z,16.30
2023-02-22T12:17:23.546Z,16.40
2023-02-22T12:19:52.268Z,16.40
2023-02-22T12:22:30.632Z,16.50
2023-02-22T12:25:16.078Z,16.50
2023-02-22T12:27:51.810Z,16.50
2023-02-22T12:30:24.611Z,16.50
2023-02-22T12:32:54.641Z,16.50
2023-02-22T12:35:34.970Z,16.50
2023-02-22T12:38:26.641Z,16.60
2023-02-22T12:41:04.069Z,16.60
2023-02-22T12:43:44.991Z,16.70
2023-02-22T12:46:18.932Z,16.70
2023-02-22T12:49:05.631Z,16.80
2023-02-22T12:52:09.509Z,16.80
2023-02-22T12:54:53.893Z,16.80
2023-02-22T12:57:34.763Z,16.90
2023-02-22T13:00:06.876Z,16.90
2023-02-22T13:03:24.514Z,16.90
2023-02-22T13:06:05.857Z,17.00
2023-02-22T13:09:13.925Z,17.00
2023-02-22T13:11:54.863Z,17.00
2023-02-22T13:14:36.878Z,17.00
2023-02-22T13:17:29.059Z,17.10
2023-02-22T13:20:01.853Z,17.10
2023-02-22T13:22:34.456Z,17.10
2023-02-22T13:25:13.013Z,17.20
2023-02-22T13:27:52.616Z,17.20
2023-02-22T13:30:45.539Z,17.20
2023-02-22T13:33:24.386Z,17.30
2023-02-22T13:36:09.561Z,17.30
2023-02-22T13:38:49.401Z,17.30
2023-02-22T13:41:47.188Z,17.30
2023-02-22T13:44:29.140Z,17.30
2023-02-22T13:47:22.018Z,17.30
2023-02-22T13:50:26.149Z,17.40
2023-02-22T13:52:55.993Z,17.40
2023-02-22T13:55:28.228Z,17.40
2023-02-22T13:58:07.242Z,17.30
2023-02-22T14:00:43.187Z,17.30
2023-02-22T14:03:12.776Z,17.30
2023-02-22T14:05:42.810Z,17.30
2023-02-22T14:08:33.874Z,17.20
2023-02-22T14:11:06.363Z,17.20
2023-02-22T14:13:58.030Z,17.20
2023-02-22T14:16:33.908Z,17.20
2023-02-22T14:19:16.723Z,17.20
2023-02-22T14:22:04.226Z,17.10
2023-02-22T14:24:47.577Z,17.00
2023-02-22T14:27:17.567Z,16.90
2023-02-22T14:29:57.261Z,16.80
2023-02-22T14:32:35.566Z,16.90
2023-02-22T14:35:25.485Z,16.90
2023-02-22T14:37:59.000Z,16.90
2023-02-22T14:40:30.326Z,16.90
2023-02-22T14:43:22.579Z,16.90
2023-02-22T14:45:53.611Z,16.90
2023-02-22T14:48:39.345Z,16.80
2023-02-22T14:51:29.200Z,16.90
2023-02-22T14:54:15.354Z,16.90
2023-02-22T14:57:14.877Z,16.90
2023-02-22T14:59:57.253Z,16.90
2023-02-22T15:02:26.064Z,16.80
2023-02-22T15:04:56.299Z,16.80
2023-02-22T15:07:29.913Z,16.70
2023-02-22T15:10:23.914Z,16.80
2023-02-22T15:13:09.397Z,16.70
2023-02-22T15:15:54.746Z,16.80
2023-02-22T15:18:24.456Z,16.70
2023-02-22T15:20:56.075Z,16.70
2023-02-22T15:23:30.410Z,16.70
2023-02-22T15:25:58.112Z,16.70
2023-02-22T15:28:29.023Z,16.70
2023-02-22T15:31:16.251Z,16.70
2023-02-22T15:33:43.558Z,16.70
2023-02-22T15:36:16.541Z,16.70
2023-02-22T15:38:49.336Z,16.60
2023-02-22T15:41:42.662Z,16.50
2023-02-22T15:44:28.046Z,16.50
2023-02-22T15:46:56.582Z,16.50
2023-02-22T15:49:24.773Z,16.60
2023-02-22T15:52:06.568Z,16.70
2023-02-22T15:54:51.693Z,16.70
2023-02-22T15:57:22.019Z,16.70
2023-02-22T15:59:53.302Z,16.60
2023-02-22T16:02:37.340Z,16.60
2023-02-22T16:05:13.591Z,16.50
2023-02-22T16:07:47.575Z,16.50
2023-02-22T16:10:30.216Z,16.40
2023-02-22T16:13:31.189Z,16.50
2023-02-22T16:16:04.560Z,16.40
2023-02-22T16:18:38.869Z,16.40
2023-02-22T16:21:13.129Z,16.40
2023-02-22T16:23:45.681Z,16.50
2023-02-22T16:26:20.039Z,16.40
2023-02-22T16:28:51.998Z,16.40
2023-02-22T16:31:25.244Z,16.40
2023-02-22T16:33:54.097Z,16.40
2023-02-22T16:36:25.181Z,16.40
2023-02-22T16:38:52.174Z,16.30
2023-02-22T16:41:20.024Z,16.20
2023-02-22T16:43:51.177Z,16.20
2023-02-22T16:46:19.858Z,16.20
2023-02-22T16:48:47.090Z,16.10
2023-02-22T16:51:26.587Z,16.10
2023-02-22T16:53:54.974Z,16.10
2023-02-22T16:56:30.525Z,16.10
2023-02-22T16:59:01.428Z,16.00
2023-02-22T17:01:28.308Z,16.10
2023-02-22T17:03:55.140Z,16.10
2023-02-22T17:06:22.072Z,16.10
2023-02-22T17:08:51.983Z,16.20
2023-02-22T17:11:19.765Z,16.20
2023-02-22T17:13:51.555Z,16.30
2023-02-22T17:16:18.864Z,16.40
2023-02-22T17:18:46.034Z,16.40
2023-02-22T17:21:13.250Z,16.50
2023-02-22T17:23:40.093Z,16.50
2023-02-22T17:26:06.978Z,16.50
2023-02-22T17:28:33.833Z,16.50
2023-02-22T17:31:01.961Z,16.60
2023-02-22T17:33:32.932Z,16.50
2023-02-22T17:36:04.951Z,16.50
2023-02-22T17:38:32.314Z,16.50
2023-02-22T17:41:01.339Z,16.50
2023-02-22T17:43:28.974Z,16.50
2023-02-22T17:45:56.636Z,16.40
2023-02-22T17:48:24.502Z,16.50
2023-02-22T17:50:52.662Z,16.50
2023-02-22T17:53:22.713Z,16.60
2023-02-22T17:55:50.530Z,16.60
2023-02-22T17:58:18.441Z,16.60
2023-02-22T18:00:48.054Z,16.60
2023-02-22T18:03:21.838Z,16.60
2023-02-22T18:05:51.181Z,16.70
2023-02-22T18:08:18.809Z,16.60
2023-02-22T18:10:46.940Z,16.60
2023-02-22T18:13:18.068Z,16.50
2023-02-22T18:15:48.702Z,16.60
2023-02-22T18:18:17.886Z,16.60
2023-02-22T18:20:46.648Z,16.60
2023-02-22T18:23:17.667Z,16.60
2023-02-22T18:26:09.017Z,16.60
2023-02-22T18:28:37.068Z,16.70
2023-02-22T18:31:09.033Z,16.70
2023-02-22T18:33:36.308Z,16.70
2023-02-22T18:36:03.424Z,16.70
2023-02-22T18:38:30.385Z,16.70
2023-02-22T18:41:05.773Z,16.70
2023-02-22T18:43:35.522Z,16.70
2023-02-22T18:46:08.653Z,16.70
2023-02-22T18:48:35.946Z,16.70
2023-02-22T18:51:05.951Z,16.70
2023-02-22T18:53:33.492Z,16.70
2023-02-22T18:56:06.260Z,16.70
2023-02-22T18:58:33.487Z,16.70
2023-02-22T19:01:04.156Z,16.70
2023-02-22T19:03:32.669Z,16.70
2023-02-22T19:06:03.864Z,16.70
2023-02-22T19:08:32.565Z,16.70
2023-02-22T19:11:05.147Z,16.70
2023-02-22T19:13:33.944Z,16.70
2023-02-22T19:16:06.089Z,16.70
2023-02-22T19:18:33.533Z,16.70
2023-02-22T19:21:08.586Z,16.70
2023-02-22T19:23:38.116Z,16.70
2023-02-22T19:26:05.916Z,16.60
2023-02-22T19:28:35.270Z,16.60
2023-02-22T19:31:11.488Z,16.60
2023-02-22T19:33:38.422Z,16.60
2023-02-22T19:36:05.754Z,16.60
2023-02-22T19:38:32.574Z,16.60
2023-02-22T19:40:59.484Z,16.60
2023-02-22T19:43:26.265Z,16.60
2023-02-22T19:45:53.133Z,16.60
2023-02-22T19:48:20.799Z,16.60
2023-02-22T19:50:50.677Z,16.60
2023-02-22T19:53:17.536Z,16.60
2023-02-22T19:55:44.365Z,16.60
2023-02-22T19:58:14.693Z,16.60
2023-02-22T20:00:41.606Z,16.60
2023-02-22T20:03:13.059Z,16.60
2023-02-22T20:05:40.694Z,16.60
2023-02-22T20:08:08.150Z,16.60
2023-02-22T20:10:34.994Z,16.60
2023-02-22T20:13:01.905Z,16.50
2023-02-22T20:15:28.974Z,16.50
2023-02-22T20:17:55.928Z,16.50
2023-02-22T20:20:24.235Z,16.50
2023-02-22T20:22:51.386Z,16.50
2023-02-22T20:25:18.338Z,16.50
2023-02-22T20:27:46.540Z,16.50
2023-02-22T20:30:18.057Z,16.60
2023-02-22T20:32:45.283Z,16.60
2023-02-22T20:35:12.216Z,16.60
2023-02-22T20:37:41.217Z,16.60
2023-02-22T20:40:08.709Z,16.60
2023-02-22T20:42:35.800Z,16.60
2023-02-22T20:45:05.819Z,16.60
2023-02-22T20:47:32.703Z,16.50
2023-02-22T20:49:59.619Z,16.50
2023-02-22T20:52:26.438Z,16.50
2023-02-22T20:54:53.319Z,16.50
2023-02-22T20:57:20.180Z,16.40
2023-02-22T20:59:47.760Z,16.50
2023-02-22T21:02:14.594Z,16.50
2023-02-22T21:04:41.543Z,16.40
2023-02-22T21:07:08.458Z,16.40
2023-02-22T21:09:36.008Z,16.40
2023-02-22T21:12:03.240Z,16.40
2023-02-22T21:14:32.456Z,16.40
2023-02-22T21:16:59.461Z,16.50
2023-02-22T21:19:26.537Z,16.50
2023-02-22T21:21:59.136Z,16.40
2023-02-22T21:24:28.006Z,16.40
2023-02-22T21:26:58.567Z,16.40
2023-02-22T21:29:25.781Z,16.40
2023-02-22T21:31:52.751Z,16.40
2023-02-22T21:34:20.122Z,16.40
2023-02-22T21:36:46.990Z,16.40
2023-02-22T21:39:18.039Z,16.40
2023-02-22T21:41:52.352Z,16.40
2023-02-22T21:44:19.929Z,16.40
2023-02-22T21:46:50.030Z,16.40
2023-02-22T21:49:17.768Z,16.40
2023-02-22T21:51:44.991Z,16.40
2023-02-22T21:54:12.972Z,16.30
2023-02-22T21:56:41.924Z,16.30
2023-02-22T21:59:22.442Z,16.30
2023-02-22T22:01:57.800Z,16.30
2023-02-22T22:04:28.531Z,16.40
2023-02-22T22:06:56.955Z,16.40
2023-02-22T22:09:28.751Z,16.30
2023-02-22T22:11:58.634Z,16.40
2023-02-22T22:14:27.094Z,16.30
2023-02-22T22:16:58.557Z,16.30
2023-02-22T22:19:30.364Z,16.40
2023-02-22T22:21:57.947Z,16.40
2023-02-22T22:24:25.348Z,16.40
2023-02-22T22:26:55.708Z,16.40
2023-02-22T22:29:24.710Z,16.40
2023-02-22T22:31:52.458Z,16.40
2023-02-22T22:34:19.600Z,16.40
2023-02-22T22:36:46.773Z,16.40
2023-02-22T22:39:13.801Z,16.40
2023-02-22T22:41:45.014Z,16.50
2023-02-22T22:44:15.396Z,16.40
2023-02-22T22:46:43.408Z,16.50
2023-02-22T22:49:13.294Z,16.40
2023-02-22T22:51:41.123Z,16.40
2023-02-22T22:54:09.516Z,16.40
2023-02-22T22:56:38.050Z,16.50
2023-02-22T22:59:10.115Z,16.50
2023-02-22T23:01:40.632Z,16.50
2023-02-22T23:04:16.172Z,16.50
2023-02-22T23:06:45.737Z,16.50
2023-02-22T23:09:29.637Z,16.40
2023-02-22T23:12:01.920Z,16.40
2023-02-22T23:14:31.195Z,16.40
2023-02-22T23:17:03.262Z,16.40
2023-02-22T23:19:31.654Z,16.40
2023-02-22T23:21:59.170Z,16.40
2023-02-22T23:24:27.543Z,16.40
2023-02-22T23:27:00.072Z,16.30
2023-02-22T23:29:29.943Z,16.30
2023-02-22T23:31:56.910Z,16.30
2023-02-22T23:34:24.067Z,16.30
2023-02-22T23:36:54.204Z,16.30
2023-02-22T23:39:22.685Z,16.30
2023-02-22T23:41:54.982Z,16.30
2023-02-22T23:44:22.877Z,16.40
2023-02-22T23:46:55.346Z,16.30
2023-02-22T23:49:25.033Z,16.30
2023-02-22T23:51:52.643Z,16.30
2023-02-22T23:54:20.913Z,16.30
2023-02-22T23:56:58.044Z,16.30
2023-02-22T23:59:26.740Z,16.30
